sensor_id;sensor_type;location;lat;lon;timestamp;temperature;humidity
55213;DHT22;41083;52.932;6.674;2024-01-06T00:01:00;3.20;99.90
55213;DHT22;41083;52.932;6.674;2024-01-06T00:03:26;3.10;99.90
55213;DHT22;41083;52.932;6.674;2024-01-06T00:05:51;3.10;99.90
55213;DHT22;41083;52.932;6.674;2024-01-06T00:08:17;3.10;99.90
55213;DHT22;41083;52.932;6.674;2024-01-06T00:10:43;3.10;99.90
55213;DHT22;41083;52.932;6.674;2024-01-06T00:13:10;3.10;99.90
55213;DHT22;41083;52.932;6.674;2024-01-06T00:15:36;3.10;99.90
55213;DHT22;41083;52.932;6.674;2024-01-06T00:18:02;3.00;99.90
55213;DHT22;41083;52.932;6.674;2024-01-06T00:20:27;3.10;99.90
55213;DHT22;41083;52.932;6.674;2024-01-06T00:22:53;3.00;99.90
55213;DHT22;41083;52.932;6.674;2024-01-06T00:25:19;3.00;99.90
55213;DHT22;41083;52.932;6.674;2024-01-06T00:27:44;3.00;99.90
55213;DHT22;41083;52.932;6.674;2024-01-06T00:30:10;3.00;99.90
55213;DHT22;41083;52.932;6.674;2024-01-06T00:32:36;3.00;99.90
55213;DHT22;41083;52.932;6.674;2024-01-06T00:35:02;3.00;99.90
55213;DHT22;41083;52.932;6.674;2024-01-06T00:37:27;3.00;99.90
55213;DHT22;41083;52.932;6.674;2024-01-06T00:39:53;2.90;99.90
55213;DHT22;41083;52.932;6.674;2024-01-06T00:42:19;3.00;99.90
55213;DHT22;41083;52.932;6.674;2024-01-06T00:44:45;3.00;99.90
55213;DHT22;41083;52.932;6.674;2024-01-06T00:47:11;2.90;99.90
55213;DHT22;41083;52.932;6.674;2024-01-06T00:49:36;3.00;99.90
55213;DHT22;41083;52.932;6.674;2024-01-06T00:52:02;3.00;99.90
55213;DHT22;41083;52.932;6.674;2024-01-06T00:54:28;2.90;99.90
55213;DHT22;41083;52.932;6.674;2024-01-06T00:56:54;3.00;99.90
55213;DHT22;41083;52.932;6.674;2024-01-06T00:59:20;2.90;99.90
55213;DHT22;41083;52.932;6.674;2024-01-06T01:01:45;3.00;99.90
55213;DHT22;41083;52.932;6.674;2024-01-06T01:04:11;2.90;99.90
55213;DHT22;41083;52.932;6.674;2024-01-06T01:06:37;2.90;99.90
55213;DHT22;41083;52.932;6.674;2024-01-06T01:09:03;3.00;99.90
55213;DHT22;41083;52.932;6.674;2024-01-06T01:11:30;3.00;99.90
55213;DHT22;41083;52.932;6.674;2024-01-06T01:13:56;2.90;99.90
55213;DHT22;41083;52.932;6.674;2024-01-06T01:16:21;2.90;99.90
55213;DHT22;41083;52.932;6.674;2024-01-06T01:18:47;2.90;99.90
55213;DHT22;41083;52.932;6.674;2024-01-06T01:21:13;2.90;99.90
55213;DHT22;41083;52.932;6.674;2024-01-06T01:23:39;2.80;99.90
55213;DHT22;41083;52.932;6.674;2024-01-06T01:26:05;2.80;99.90
55213;DHT22;41083;52.932;6.674;2024-01-06T01:28:30;2.80;99.90
55213;DHT22;41083;52.932;6.674;2024-01-06T01:30:56;2.70;99.90
55213;DHT22;41083;52.932;6.674;2024-01-06T01:33:22;2.70;99.90
55213;DHT22;41083;52.932;6.674;2024-01-06T01:35:47;2.70;99.90
55213;DHT22;41083;52.932;6.674;2024-01-06T01:38:13;2.70;99.90
55213;DHT22;41083;52.932;6.674;2024-01-06T01:40:38;2.70;99.90
55213;DHT22;41083;52.932;6.674;2024-01-06T01:43:04;2.70;99.90
55213;DHT22;41083;52.932;6.674;2024-01-06T01:45:30;2.70;99.90
55213;DHT22;41083;52.932;6.674;2024-01-06T01:47:55;2.70;99.90
55213;DHT22;41083;52.932;6.674;2024-01-06T01:50:21;2.70;99.90
55213;DHT22;41083;52.932;6.674;2024-01-06T01:52:48;2.70;99.90
55213;DHT22;41083;52.932;6.674;2024-01-06T01:55:14;2.70;99.90
55213;DHT22;41083;52.932;6.674;2024-01-06T01:57:40;2.70;99.90
55213;DHT22;41083;52.932;6.674;2024-01-06T02:00:07;2.70;99.90
55213;DHT22;41083;52.932;6.674;2024-01-06T02:02:32;2.70;99.90
55213;DHT22;41083;52.932;6.674;2024-01-06T02:04:58;2.70;99.90
55213;DHT22;41083;52.932;6.674;2024-01-06T02:07:25;2.70;99.90
55213;DHT22;41083;52.932;6.674;2024-01-06T02:09:50;2.70;99.90
55213;DHT22;41083;52.932;6.674;2024-01-06T02:12:16;2.70;99.90
55213;DHT22;41083;52.932;6.674;2024-01-06T02:14:42;2.60;99.90
55213;DHT22;41083;52.932;6.674;2024-01-06T02:17:08;2.60;99.90
55213;DHT22;41083;52.932;6.674;2024-01-06T02:19:34;2.60;99.90
55213;DHT22;41083;52.932;6.674;2024-01-06T02:22:00;2.60;99.90
55213;DHT22;41083;52.932;6.674;2024-01-06T02:24:26;2.60;99.90
55213;DHT22;41083;52.932;6.674;2024-01-06T02:26:51;2.60;99.90
55213;DHT22;41083;52.932;6.674;2024-01-06T02:29:17;2.60;99.90
55213;DHT22;41083;52.932;6.674;2024-01-06T02:31:43;2.60;99.90
55213;DHT22;41083;52.932;6.674;2024-01-06T02:34:09;2.60;99.90
55213;DHT22;41083;52.932;6.674;2024-01-06T02:36:34;2.60;99.90
55213;DHT22;41083;52.932;6.674;2024-01-06T02:39:00;2.60;99.90
55213;DHT22;41083;52.932;6.674;2024-01-06T02:41:26;2.60;99.90
55213;DHT22;41083;52.932;6.674;2024-01-06T02:43:53;2.60;99.90
55213;DHT22;41083;52.932;6.674;2024-01-06T02:46:19;2.60;99.90
55213;DHT22;41083;52.932;6.674;2024-01-06T02:48:45;2.60;99.90
55213;DHT22;41083;52.932;6.674;2024-01-06T02:51:11;2.60;99.90
55213;DHT22;41083;52.932;6.674;2024-01-06T02:53:38;2.60;99.90
55213;DHT22;41083;52.932;6.674;2024-01-06T02:56:04;2.60;99.90
55213;DHT22;41083;52.932;6.674;2024-01-06T02:58:30;2.60;99.90
55213;DHT22;41083;52.932;6.674;2024-01-06T03:00:55;2.50;99.90
55213;DHT22;41083;52.932;6.674;2024-01-06T03:03:21;2.50;99.90
55213;DHT22;41083;52.932;6.674;2024-01-06T03:05:46;2.50;99.90
55213;DHT22;41083;52.932;6.674;2024-01-06T03:08:14;2.50;99.90
55213;DHT22;41083;52.932;6.674;2024-01-06T03:10:41;2.50;99.90
55213;DHT22;41083;52.932;6.674;2024-01-06T03:13:07;2.50;99.90
55213;DHT22;41083;52.932;6.674;2024-01-06T03:15:32;2.50;99.90
55213;DHT22;41083;52.932;6.674;2024-01-06T03:17:58;2.50;99.90
55213;DHT22;41083;52.932;6.674;2024-01-06T03:20:24;2.50;99.90
55213;DHT22;41083;52.932;6.674;2024-01-06T03:22:49;2.40;99.90
55213;DHT22;41083;52.932;6.674;2024-01-06T03:25:15;2.40;99.90
55213;DHT22;41083;52.932;6.674;2024-01-06T03:27:41;2.40;99.90
55213;DHT22;41083;52.932;6.674;2024-01-06T03:30:07;2.40;99.90
55213;DHT22;41083;52.932;6.674;2024-01-06T03:32:32;2.40;99.90
55213;DHT22;41083;52.932;6.674;2024-01-06T03:34:58;2.40;99.90
55213;DHT22;41083;52.932;6.674;2024-01-06T03:37:24;2.40;99.90
55213;DHT22;41083;52.932;6.674;2024-01-06T03:39:50;2.40;99.90
55213;DHT22;41083;52.932;6.674;2024-01-06T03:42:16;2.40;99.90
55213;DHT22;41083;52.932;6.674;2024-01-06T03:44:42;2.40;99.90
55213;DHT22;41083;52.932;6.674;2024-01-06T03:47:07;2.40;99.90
55213;DHT22;41083;52.932;6.674;2024-01-06T03:49:33;2.40;99.90
55213;DHT22;41083;52.932;6.674;2024-01-06T03:51:59;2.40;99.90
55213;DHT22;41083;52.932;6.674;2024-01-06T03:54:24;2.40;99.90
55213;DHT22;41083;52.932;6.674;2024-01-06T03:56:50;2.40;99.90
55213;DHT22;41083;52.932;6.674;2024-01-06T03:59:15;2.40;99.90
55213;DHT22;41083;52.932;6.674;2024-01-06T04:01:41;2.40;99.90
55213;DHT22;41083;52.932;6.674;2024-01-06T04:04:07;2.40;99.90
55213;DHT22;41083;52.932;6.674;2024-01-06T04:06:33;2.40;99.90
55213;DHT22;41083;52.932;6.674;2024-01-06T04:08:58;2.30;99.90
55213;DHT22;41083;52.932;6.674;2024-01-06T04:11:24;2.30;99.90
55213;DHT22;41083;52.932;6.674;2024-01-06T04:13:50;2.30;99.90
55213;DHT22;41083;52.932;6.674;2024-01-06T04:16:15;2.30;99.90
55213;DHT22;41083;52.932;6.674;2024-01-06T04:18:41;2.30;99.90
55213;DHT22;41083;52.932;6.674;2024-01-06T04:21:06;2.30;99.90
55213;DHT22;41083;52.932;6.674;2024-01-06T04:23:34;2.30;99.90
55213;DHT22;41083;52.932;6.674;2024-01-06T04:26:00;2.20;99.90
55213;DHT22;41083;52.932;6.674;2024-01-06T04:28:25;2.20;99.90
55213;DHT22;41083;52.932;6.674;2024-01-06T04:30:51;2.20;99.90
55213;DHT22;41083;52.932;6.674;2024-01-06T04:33:16;2.20;99.90
55213;DHT22;41083;52.932;6.674;2024-01-06T04:35:42;2.30;99.90
55213;DHT22;41083;52.932;6.674;2024-01-06T04:38:08;2.30;99.90
55213;DHT22;41083;52.932;6.674;2024-01-06T04:40:34;2.30;99.90
55213;DHT22;41083;52.932;6.674;2024-01-06T04:43:00;2.30;99.90
55213;DHT22;41083;52.932;6.674;2024-01-06T04:45:26;2.30;99.90
55213;DHT22;41083;52.932;6.674;2024-01-06T04:47:51;2.30;99.90
55213;DHT22;41083;52.932;6.674;2024-01-06T04:50:18;2.30;99.90
55213;DHT22;41083;52.932;6.674;2024-01-06T04:52:43;2.30;99.90
55213;DHT22;41083;52.932;6.674;2024-01-06T04:55:09;2.30;99.90
55213;DHT22;41083;52.932;6.674;2024-01-06T04:57:36;2.30;99.90
55213;DHT22;41083;52.932;6.674;2024-01-06T05:00:03;2.30;99.90
55213;DHT22;41083;52.932;6.674;2024-01-06T05:02:29;2.30;99.90
55213;DHT22;41083;52.932;6.674;2024-01-06T05:04:54;2.30;99.90
55213;DHT22;41083;52.932;6.674;2024-01-06T05:07:20;2.30;99.90
55213;DHT22;41083;52.932;6.674;2024-01-06T05:09:46;2.30;99.90
55213;DHT22;41083;52.932;6.674;2024-01-06T05:12:11;2.20;99.90
55213;DHT22;41083;52.932;6.674;2024-01-06T05:14:37;2.20;99.90
55213;DHT22;41083;52.932;6.674;2024-01-06T05:17:03;2.20;99.90
55213;DHT22;41083;52.932;6.674;2024-01-06T05:19:28;2.20;99.90
55213;DHT22;41083;52.932;6.674;2024-01-06T05:21:54;2.20;99.90
55213;DHT22;41083;52.932;6.674;2024-01-06T05:24:20;2.10;99.90
55213;DHT22;41083;52.932;6.674;2024-01-06T05:26:45;2.10;99.90
55213;DHT22;41083;52.932;6.674;2024-01-06T05:29:11;2.10;99.90
55213;DHT22;41083;52.932;6.674;2024-01-06T05:31:37;2.10;99.90
55213;DHT22;41083;52.932;6.674;2024-01-06T05:34:02;2.10;99.90
55213;DHT22;41083;52.932;6.674;2024-01-06T05:36:28;2.10;99.90
55213;DHT22;41083;52.932;6.674;2024-01-06T05:38:54;2.10;99.90
55213;DHT22;41083;52.932;6.674;2024-01-06T05:41:19;2.10;99.90
55213;DHT22;41083;52.932;6.674;2024-01-06T05:43:45;2.10;99.90
55213;DHT22;41083;52.932;6.674;2024-01-06T05:46:10;2.00;99.90
55213;DHT22;41083;52.932;6.674;2024-01-06T05:48:36;2.10;99.90
55213;DHT22;41083;52.932;6.674;2024-01-06T05:51:04;2.10;99.90
55213;DHT22;41083;52.932;6.674;2024-01-06T05:53:31;2.00;99.90
55213;DHT22;41083;52.932;6.674;2024-01-06T05:55:57;2.00;99.90
55213;DHT22;41083;52.932;6.674;2024-01-06T05:58:22;2.00;99.90
55213;DHT22;41083;52.932;6.674;2024-01-06T06:00:48;2.00;99.90
55213;DHT22;41083;52.932;6.674;2024-01-06T06:03:14;2.00;99.90
55213;DHT22;41083;52.932;6.674;2024-01-06T06:05:39;2.00;99.90
55213;DHT22;41083;52.932;6.674;2024-01-06T06:08:05;1.90;99.90
55213;DHT22;41083;52.932;6.674;2024-01-06T06:10:31;1.90;99.90
55213;DHT22;41083;52.932;6.674;2024-01-06T06:13:07;1.90;99.90
55213;DHT22;41083;52.932;6.674;2024-01-06T06:15:36;1.90;99.90
55213;DHT22;41083;52.932;6.674;2024-01-06T06:18:01;1.90;99.90
55213;DHT22;41083;52.932;6.674;2024-01-06T06:20:27;1.90;99.90
55213;DHT22;41083;52.932;6.674;2024-01-06T06:22:53;1.90;99.90
55213;DHT22;41083;52.932;6.674;2024-01-06T06:25:18;1.90;99.90
55213;DHT22;41083;52.932;6.674;2024-01-06T06:27:44;1.90;99.90
55213;DHT22;41083;52.932;6.674;2024-01-06T06:30:10;1.90;99.90
55213;DHT22;41083;52.932;6.674;2024-01-06T06:32:36;1.90;99.90
55213;DHT22;41083;52.932;6.674;2024-01-06T06:35:01;1.90;99.90
55213;DHT22;41083;52.932;6.674;2024-01-06T06:37:27;1.90;99.90
55213;DHT22;41083;52.932;6.674;2024-01-06T06:39:52;1.90;99.90
55213;DHT22;41083;52.932;6.674;2024-01-06T06:42:18;1.90;99.90
55213;DHT22;41083;52.932;6.674;2024-01-06T06:44:44;2.00;99.90
55213;DHT22;41083;52.932;6.674;2024-01-06T06:47:09;2.00;99.90
55213;DHT22;41083;52.932;6.674;2024-01-06T06:49:35;2.00;99.90
55213;DHT22;41083;52.932;6.674;2024-01-06T06:52:00;2.00;99.90
55213;DHT22;41083;52.932;6.674;2024-01-06T06:54:28;2.00;99.90
55213;DHT22;41083;52.932;6.674;2024-01-06T06:56:54;2.00;99.90
55213;DHT22;41083;52.932;6.674;2024-01-06T06:59:19;2.00;99.90
55213;DHT22;41083;52.932;6.674;2024-01-06T07:01:45;2.00;99.90
55213;DHT22;41083;52.932;6.674;2024-01-06T07:04:11;2.00;99.90
55213;DHT22;41083;52.932;6.674;2024-01-06T07:06:37;2.00;99.90
55213;DHT22;41083;52.932;6.674;2024-01-06T07:09:03;2.00;99.90
55213;DHT22;41083;52.932;6.674;2024-01-06T07:11:30;2.00;99.90
55213;DHT22;41083;52.932;6.674;2024-01-06T07:13:56;2.00;99.90
55213;DHT22;41083;52.932;6.674;2024-01-06T07:16:21;2.00;99.90
55213;DHT22;41083;52.932;6.674;2024-01-06T07:18:47;2.00;99.90
55213;DHT22;41083;52.932;6.674;2024-01-06T07:21:13;2.00;99.90
55213;DHT22;41083;52.932;6.674;2024-01-06T07:23:39;2.00;99.90
55213;DHT22;41083;52.932;6.674;2024-01-06T07:26:05;2.00;99.90
55213;DHT22;41083;52.932;6.674;2024-01-06T07:28:30;2.00;99.90
55213;DHT22;41083;52.932;6.674;2024-01-06T07:30:56;2.10;99.90
55213;DHT22;41083;52.932;6.674;2024-01-06T07:33:21;2.00;99.90
55213;DHT22;41083;52.932;6.674;2024-01-06T07:35:47;2.00;99.90
55213;DHT22;41083;52.932;6.674;2024-01-06T07:38:13;2.00;99.90
55213;DHT22;41083;52.932;6.674;2024-01-06T07:40:39;2.00;99.90
55213;DHT22;41083;52.932;6.674;2024-01-06T07:43:06;2.00;99.90
55213;DHT22;41083;52.932;6.674;2024-01-06T07:45:31;2.00;99.90
55213;DHT22;41083;52.932;6.674;2024-01-06T07:48:00;2.00;99.90
55213;DHT22;41083;52.932;6.674;2024-01-06T07:50:26;2.00;99.90
55213;DHT22;41083;52.932;6.674;2024-01-06T07:52:53;2.00;99.90
55213;DHT22;41083;52.932;6.674;2024-01-06T07:55:19;1.90;99.90
55213;DHT22;41083;52.932;6.674;2024-01-06T07:57:45;1.90;99.90
55213;DHT22;41083;52.932;6.674;2024-01-06T08:00:11;1.90;99.90
55213;DHT22;41083;52.932;6.674;2024-01-06T08:02:40;1.90;99.90
55213;DHT22;41083;52.932;6.674;2024-01-06T08:05:06;1.90;99.90
55213;DHT22;41083;52.932;6.674;2024-01-06T08:07:32;1.90;99.90
55213;DHT22;41083;52.932;6.674;2024-01-06T08:09:58;1.90;99.90
55213;DHT22;41083;52.932;6.674;2024-01-06T08:12:24;1.90;99.90
55213;DHT22;41083;52.932;6.674;2024-01-06T08:14:49;1.90;99.90
55213;DHT22;41083;52.932;6.674;2024-01-06T08:17:15;2.00;99.90
55213;DHT22;41083;52.932;6.674;2024-01-06T08:19:41;2.00;99.90
55213;DHT22;41083;52.932;6.674;2024-01-06T08:22:07;2.00;99.90
55213;DHT22;41083;52.932;6.674;2024-01-06T08:24:33;2.00;99.90
55213;DHT22;41083;52.932;6.674;2024-01-06T08:26:59;1.90;99.90
55213;DHT22;41083;52.932;6.674;2024-01-06T08:29:25;1.90;99.90
55213;DHT22;41083;52.932;6.674;2024-01-06T08:31:51;2.00;99.90
55213;DHT22;41083;52.932;6.674;2024-01-06T08:34:18;1.90;99.90
55213;DHT22;41083;52.932;6.674;2024-01-06T08:36:44;1.90;99.90
55213;DHT22;41083;52.932;6.674;2024-01-06T08:39:11;1.90;99.90
55213;DHT22;41083;52.932;6.674;2024-01-06T08:41:37;2.00;99.90
55213;DHT22;41083;52.932;6.674;2024-01-06T08:44:02;2.00;99.90
55213;DHT22;41083;52.932;6.674;2024-01-06T08:46:28;2.00;99.90
55213;DHT22;41083;52.932;6.674;2024-01-06T08:48:54;2.00;99.90
55213;DHT22;41083;52.932;6.674;2024-01-06T08:51:19;1.90;99.90
55213;DHT22;41083;52.932;6.674;2024-01-06T08:53:46;2.00;99.90
55213;DHT22;41083;52.932;6.674;2024-01-06T08:56:11;2.00;99.90
55213;DHT22;41083;52.932;6.674;2024-01-06T08:58:37;2.00;99.90
55213;DHT22;41083;52.932;6.674;2024-01-06T09:01:03;2.00;99.90
55213;DHT22;41083;52.932;6.674;2024-01-06T09:03:29;2.00;99.90
55213;DHT22;41083;52.932;6.674;2024-01-06T09:05:57;2.00;99.90
55213;DHT22;41083;52.932;6.674;2024-01-06T09:08:24;2.00;99.90
55213;DHT22;41083;52.932;6.674;2024-01-06T09:10:49;2.00;99.90
55213;DHT22;41083;52.932;6.674;2024-01-06T09:13:17;2.10;99.90
55213;DHT22;41083;52.932;6.674;2024-01-06T09:15:43;2.10;99.90
55213;DHT22;41083;52.932;6.674;2024-01-06T09:18:09;2.10;99.90
55213;DHT22;41083;52.932;6.674;2024-01-06T09:20:35;2.00;99.90
55213;DHT22;41083;52.932;6.674;2024-01-06T09:23:00;2.00;99.90
55213;DHT22;41083;52.932;6.674;2024-01-06T09:25:26;2.00;99.90
55213;DHT22;41083;52.932;6.674;2024-01-06T09:27:52;2.00;99.90
55213;DHT22;41083;52.932;6.674;2024-01-06T09:30:18;2.00;99.90
55213;DHT22;41083;52.932;6.674;2024-01-06T09:32:44;2.00;99.90
55213;DHT22;41083;52.932;6.674;2024-01-06T09:35:10;2.00;99.90
55213;DHT22;41083;52.932;6.674;2024-01-06T09:37:35;2.00;99.90
55213;DHT22;41083;52.932;6.674;2024-01-06T09:40:01;2.00;99.90
55213;DHT22;41083;52.932;6.674;2024-01-06T09:42:26;2.00;99.90
55213;DHT22;41083;52.932;6.674;2024-01-06T09:44:52;2.00;99.90
55213;DHT22;41083;52.932;6.674;2024-01-06T09:47:18;2.00;99.90
55213;DHT22;41083;52.932;6.674;2024-01-06T09:49:48;2.00;99.90
55213;DHT22;41083;52.932;6.674;2024-01-06T09:52:15;2.00;99.90
55213;DHT22;41083;52.932;6.674;2024-01-06T09:54:51;1.90;99.90
55213;DHT22;41083;52.932;6.674;2024-01-06T09:57:17;1.90;99.90
55213;DHT22;41083;52.932;6.674;2024-01-06T09:59:44;1.90;99.90
55213;DHT22;41083;52.932;6.674;2024-01-06T10:02:16;2.00;99.90
55213;DHT22;41083;52.932;6.674;2024-01-06T10:04:43;1.90;99.90
55213;DHT22;41083;52.932;6.674;2024-01-06T10:07:10;1.90;99.90
55213;DHT22;41083;52.932;6.674;2024-01-06T10:09:40;2.00;99.90
55213;DHT22;41083;52.932;6.674;2024-01-06T10:12:06;2.00;99.90
55213;DHT22;41083;52.932;6.674;2024-01-06T10:14:31;2.00;99.90
55213;DHT22;41083;52.932;6.674;2024-01-06T10:16:57;2.00;99.90
55213;DHT22;41083;52.932;6.674;2024-01-06T10:19:23;2.00;99.90
55213;DHT22;41083;52.932;6.674;2024-01-06T10:21:49;2.00;99.90
55213;DHT22;41083;52.932;6.674;2024-01-06T10:24:17;2.00;99.90
55213;DHT22;41083;52.932;6.674;2024-01-06T10:26:45;2.00;99.90
55213;DHT22;41083;52.932;6.674;2024-01-06T10:29:11;2.00;99.90
55213;DHT22;41083;52.932;6.674;2024-01-06T10:31:37;2.00;99.90
55213;DHT22;41083;52.932;6.674;2024-01-06T10:34:03;2.00;99.90
55213;DHT22;41083;52.932;6.674;2024-01-06T10:36:29;2.10;99.90
55213;DHT22;41083;52.932;6.674;2024-01-06T10:38:57;2.10;99.90
55213;DHT22;41083;52.932;6.674;2024-01-06T10:41:23;2.10;99.90
55213;DHT22;41083;52.932;6.674;2024-01-06T10:43:51;2.00;99.90
55213;DHT22;41083;52.932;6.674;2024-01-06T10:46:19;2.00;99.90
55213;DHT22;41083;52.932;6.674;2024-01-06T10:48:45;2.00;99.90
55213;DHT22;41083;52.932;6.674;2024-01-06T10:51:12;2.10;99.90
55213;DHT22;41083;52.932;6.674;2024-01-06T10:53:40;2.10;99.90
55213;DHT22;41083;52.932;6.674;2024-01-06T10:56:07;2.10;99.90
55213;DHT22;41083;52.932;6.674;2024-01-06T10:58:36;2.10;99.90
55213;DHT22;41083;52.932;6.674;2024-01-06T11:01:09;2.10;99.90
55213;DHT22;41083;52.932;6.674;2024-01-06T11:03:37;2.10;99.90
55213;DHT22;41083;52.932;6.674;2024-01-06T11:06:05;2.00;99.90
55213;DHT22;41083;52.932;6.674;2024-01-06T11:08:33;2.00;99.90
55213;DHT22;41083;52.932;6.674;2024-01-06T11:11:02;2.00;99.90
55213;DHT22;41083;52.932;6.674;2024-01-06T11:13:28;2.00;99.90
55213;DHT22;41083;52.932;6.674;2024-01-06T11:15:54;2.10;99.90
55213;DHT22;41083;52.932;6.674;2024-01-06T11:18:37;2.00;99.90
55213;DHT22;41083;52.932;6.674;2024-01-06T11:21:19;2.00;99.90
55213;DHT22;41083;52.932;6.674;2024-01-06T11:24:18;2.00;99.90
55213;DHT22;41083;52.932;6.674;2024-01-06T11:26:51;2.00;99.90
55213;DHT22;41083;52.932;6.674;2024-01-06T11:29:19;2.00;99.90
55213;DHT22;41083;52.932;6.674;2024-01-06T11:32:17;2.00;99.90
55213;DHT22;41083;52.932;6.674;2024-01-06T11:34:48;2.00;99.90
55213;DHT22;41083;52.932;6.674;2024-01-06T11:38:06;2.00;99.90
55213;DHT22;41083;52.932;6.674;2024-01-06T11:40:27;2.00;99.90
55213;DHT22;41083;52.932;6.674;2024-01-06T11:43:09;2.00;99.90
55213;DHT22;41083;52.932;6.674;2024-01-06T11:45:36;2.00;99.90
55213;DHT22;41083;52.932;6.674;2024-01-06T11:48:07;2.00;99.90
55213;DHT22;41083;52.932;6.674;2024-01-06T11:50:38;2.00;99.90
55213;DHT22;41083;52.932;6.674;2024-01-06T11:53:05;2.00;99.90
55213;DHT22;41083;52.932;6.674;2024-01-06T11:55:31;2.00;99.90
55213;DHT22;41083;52.932;6.674;2024-01-06T11:58:01;2.00;99.90
55213;DHT22;41083;52.932;6.674;2024-01-06T12:00:34;2.00;99.90
55213;DHT22;41083;52.932;6.674;2024-01-06T12:03:04;2.00;99.90
55213;DHT22;41083;52.932;6.674;2024-01-06T12:05:30;2.00;99.90
55213;DHT22;41083;52.932;6.674;2024-01-06T12:07:58;2.00;99.90
55213;DHT22;41083;52.932;6.674;2024-01-06T12:10:24;2.00;99.90
55213;DHT22;41083;52.932;6.674;2024-01-06T12:13:00;2.00;99.90
55213;DHT22;41083;52.932;6.674;2024-01-06T12:15:26;2.00;99.90
55213;DHT22;41083;52.932;6.674;2024-01-06T12:17:52;2.00;99.90
55213;DHT22;41083;52.932;6.674;2024-01-06T12:20:18;2.00;99.90
55213;DHT22;41083;52.932;6.674;2024-01-06T12:22:44;2.00;99.90
55213;DHT22;41083;52.932;6.674;2024-01-06T12:25:10;2.00;99.90
55213;DHT22;41083;52.932;6.674;2024-01-06T12:27:36;1.90;99.90
55213;DHT22;41083;52.932;6.674;2024-01-06T12:30:13;2.00;99.90
55213;DHT22;41083;52.932;6.674;2024-01-06T12:32:41;2.00;99.90
55213;DHT22;41083;52.932;6.674;2024-01-06T12:35:09;2.00;99.90
55213;DHT22;41083;52.932;6.674;2024-01-06T12:37:35;2.00;99.90
55213;DHT22;41083;52.932;6.674;2024-01-06T12:40:01;2.00;99.90
55213;DHT22;41083;52.932;6.674;2024-01-06T12:42:27;2.00;99.90
55213;DHT22;41083;52.932;6.674;2024-01-06T12:44:52;1.90;99.90
55213;DHT22;41083;52.932;6.674;2024-01-06T12:47:18;1.90;99.90
55213;DHT22;41083;52.932;6.674;2024-01-06T12:49:44;1.90;99.90
55213;DHT22;41083;52.932;6.674;2024-01-06T12:54:57;1.90;99.90
55213;DHT22;41083;52.932;6.674;2024-01-06T12:57:22;2.00;99.90
55213;DHT22;41083;52.932;6.674;2024-01-06T12:59:48;1.90;99.90
55213;DHT22;41083;52.932;6.674;2024-01-06T13:02:14;1.90;99.90
55213;DHT22;41083;52.932;6.674;2024-01-06T13:04:39;1.90;99.90
55213;DHT22;41083;52.932;6.674;2024-01-06T13:07:05;2.00;99.90
55213;DHT22;41083;52.932;6.674;2024-01-06T13:09:31;2.00;99.90
55213;DHT22;41083;52.932;6.674;2024-01-06T13:11:58;2.00;99.90
55213;DHT22;41083;52.932;6.674;2024-01-06T13:14:26;1.90;99.90
55213;DHT22;41083;52.932;6.674;2024-01-06T13:16:52;1.90;99.90
55213;DHT22;41083;52.932;6.674;2024-01-06T13:19:18;1.90;99.90
55213;DHT22;41083;52.932;6.674;2024-01-06T13:21:45;1.90;99.90
55213;DHT22;41083;52.932;6.674;2024-01-06T13:24:10;2.00;99.90
55213;DHT22;41083;52.932;6.674;2024-01-06T13:26:37;1.90;99.90
55213;DHT22;41083;52.932;6.674;2024-01-06T13:29:03;2.00;99.90
55213;DHT22;41083;52.932;6.674;2024-01-06T13:31:29;2.00;99.90
55213;DHT22;41083;52.932;6.674;2024-01-06T13:33:56;1.90;99.90
55213;DHT22;41083;52.932;6.674;2024-01-06T13:36:22;2.00;99.90
55213;DHT22;41083;52.932;6.674;2024-01-06T13:38:48;2.00;99.90
55213;DHT22;41083;52.932;6.674;2024-01-06T13:41:14;1.90;99.90
55213;DHT22;41083;52.932;6.674;2024-01-06T13:43:40;1.90;99.90
55213;DHT22;41083;52.932;6.674;2024-01-06T13:46:06;1.90;99.90
55213;DHT22;41083;52.932;6.674;2024-01-06T13:48:32;1.90;99.90
55213;DHT22;41083;52.932;6.674;2024-01-06T13:50:58;1.90;99.90
55213;DHT22;41083;52.932;6.674;2024-01-06T13:53:24;1.90;99.90
55213;DHT22;41083;52.932;6.674;2024-01-06T13:55:50;1.90;99.90
55213;DHT22;41083;52.932;6.674;2024-01-06T13:58:16;1.90;99.90
55213;DHT22;41083;52.932;6.674;2024-01-06T14:00:45;1.90;99.90
55213;DHT22;41083;52.932;6.674;2024-01-06T14:03:12;1.90;99.90
55213;DHT22;41083;52.932;6.674;2024-01-06T14:05:38;1.90;99.90
55213;DHT22;41083;52.932;6.674;2024-01-06T14:08:06;2.00;99.90
55213;DHT22;41083;52.932;6.674;2024-01-06T14:10:32;2.00;99.90
55213;DHT22;41083;52.932;6.674;2024-01-06T14:12:58;2.00;99.90
55213;DHT22;41083;52.932;6.674;2024-01-06T14:15:23;2.00;99.90
55213;DHT22;41083;52.932;6.674;2024-01-06T14:17:49;2.00;99.90
55213;DHT22;41083;52.932;6.674;2024-01-06T14:20:18;2.00;99.90
55213;DHT22;41083;52.932;6.674;2024-01-06T14:22:45;2.00;99.90
55213;DHT22;41083;52.932;6.674;2024-01-06T14:25:12;2.00;99.90
55213;DHT22;41083;52.932;6.674;2024-01-06T14:27:39;1.90;99.90
55213;DHT22;41083;52.932;6.674;2024-01-06T14:30:05;1.90;99.90
55213;DHT22;41083;52.932;6.674;2024-01-06T14:32:32;1.90;99.90
55213;DHT22;41083;52.932;6.674;2024-01-06T14:34:58;1.90;99.90
55213;DHT22;41083;52.932;6.674;2024-01-06T14:37:24;1.90;99.90
55213;DHT22;41083;52.932;6.674;2024-01-06T14:39:50;1.90;99.90
55213;DHT22;41083;52.932;6.674;2024-01-06T14:42:15;1.90;99.90
55213;DHT22;41083;52.932;6.674;2024-01-06T14:44:44;1.90;99.90
55213;DHT22;41083;52.932;6.674;2024-01-06T14:47:10;1.90;99.90
55213;DHT22;41083;52.932;6.674;2024-01-06T14:49:38;1.90;99.90
55213;DHT22;41083;52.932;6.674;2024-01-06T14:52:04;1.90;99.90
55213;DHT22;41083;52.932;6.674;2024-01-06T14:54:30;1.90;99.90
55213;DHT22;41083;52.932;6.674;2024-01-06T14:56:57;1.90;99.90
55213;DHT22;41083;52.932;6.674;2024-01-06T14:59:24;1.80;99.90
55213;DHT22;41083;52.932;6.674;2024-01-06T15:01:49;1.80;99.90
55213;DHT22;41083;52.932;6.674;2024-01-06T15:04:15;1.80;99.90
55213;DHT22;41083;52.932;6.674;2024-01-06T15:06:42;1.80;99.90
55213;DHT22;41083;52.932;6.674;2024-01-06T15:09:08;1.80;99.90
55213;DHT22;41083;52.932;6.674;2024-01-06T15:11:34;1.80;99.90
55213;DHT22;41083;52.932;6.674;2024-01-06T15:14:01;1.80;99.90
55213;DHT22;41083;52.932;6.674;2024-01-06T15:16:30;1.80;99.90
55213;DHT22;41083;52.932;6.674;2024-01-06T15:18:56;1.80;99.90
55213;DHT22;41083;52.932;6.674;2024-01-06T15:21:24;1.80;99.90
55213;DHT22;41083;52.932;6.674;2024-01-06T15:23:51;1.80;99.90
55213;DHT22;41083;52.932;6.674;2024-01-06T15:26:27;1.80;99.90
55213;DHT22;41083;52.932;6.674;2024-01-06T15:28:52;1.80;99.90
55213;DHT22;41083;52.932;6.674;2024-01-06T15:31:19;1.70;99.90
55213;DHT22;41083;52.932;6.674;2024-01-06T15:33:44;1.70;99.90
55213;DHT22;41083;52.932;6.674;2024-01-06T15:36:13;1.70;99.90
55213;DHT22;41083;52.932;6.674;2024-01-06T15:38:39;1.70;99.90
55213;DHT22;41083;52.932;6.674;2024-01-06T15:41:06;1.70;99.90
55213;DHT22;41083;52.932;6.674;2024-01-06T15:43:32;1.70;99.90